Time;durP1;ratioP1;P1;durP2;ratioP2;P2;SDS_P1;SDS_P2;PMS_P1;PMS_P2;Temp;Humidity;BMP_temperature;BMP_pressure;BME280_temperature;BME280_humidity;BME280_pressure;Samples;Min_cycle;Max_cycle;Signal;HPM_P1;HPM_P2
2022/04/09 00:00:37;;;;;;;10.15;2.28;;;;;;;5.00;93.26;100513.56;4960441;28;20031;-72
2022/04/09 00:03:03;;;;;;;14.25;3.38;;;;;;;4.91;92.74;100515.56;4942624;28;20034;-73
2022/04/09 00:05:28;;;;;;;10.43;2.03;;;;;;;4.82;93.68;100513.19;4943167;28;20088;-73
2022/04/09 00:07:54;;;;;;;11.07;2.10;;;;;;;4.73;93.06;100516.91;4943731;28;20482;-72
2022/04/09 00:10:19;;;;;;;9.30;1.80;;;;;;;4.63;93.47;100530.25;4960743;28;20030;-72
2022/04/09 00:12:46;;;;;;;14.93;2.10;;;;;;;4.55;94.32;100523.47;4942151;28;20047;-73
2022/04/09 00:15:12;;;;;;;12.07;2.33;;;;;;;4.47;95.04;100516.69;4959981;28;20035;-72
2022/04/09 00:17:45;;;;;;;13.57;2.80;;;;;;;4.40;95.77;100537.81;4958425;28;20126;-72
2022/04/09 00:20:12;;;;;;;12.05;2.58;;;;;;;4.39;96.64;100543.09;4960820;28;20157;-73
2022/04/09 00:22:39;;;;;;;15.65;3.33;;;;;;;4.43;97.41;100539.50;4960249;28;20505;-74
2022/04/09 00:25:06;;;;;;;14.63;2.53;;;;;;;4.48;98.11;100536.78;4942974;28;20117;-74
2022/04/09 00:27:32;;;;;;;12.45;2.05;;;;;;;4.48;97.89;100542.88;4960293;28;20034;-74
2022/04/09 00:29:57;;;;;;;9.77;2.58;;;;;;;4.47;98.59;100545.53;4960378;28;20081;-72
2022/04/09 00:32:22;;;;;;;12.43;2.28;;;;;;;4.49;98.37;100544.59;4962101;28;20035;-73
2022/04/09 00:34:48;;;;;;;16.52;2.28;;;;;;;4.54;98.00;100555.84;4946768;28;20035;-73
2022/04/09 00:37:13;;;;;;;15.55;2.33;;;;;;;4.61;97.15;100556.53;4942616;28;20078;-74
2022/04/09 00:39:39;;;;;;;15.48;2.40;;;;;;;4.74;95.39;100550.09;4960167;28;20041;-73
2022/04/09 00:42:05;;;;;;;13.95;2.83;;;;;;;4.79;95.26;100556.97;4943539;28;20499;-73
2022/04/09 00:44:31;;;;;;;16.05;2.78;;;;;;;4.83;93.56;100558.63;4959361;28;20038;-72
2022/04/09 00:46:57;;;;;;;16.15;2.25;;;;;;;4.84;93.30;100555.09;4959990;28;20395;-72
2022/04/09 00:49:24;;;;;;;13.77;2.40;;;;;;;4.80;94.08;100564.81;4959962;28;20133;-72
2022/04/09 00:51:51;;;;;;;14.18;2.60;;;;;;;4.76;94.04;100569.28;4942517;28;20043;-74
2022/04/09 00:54:22;;;;;;;18.02;2.70;;;;;;;4.76;94.78;100574.50;4960647;28;20513;-73
2022/04/09 00:56:49;;;;;;;14.83;2.43;;;;;;;4.75;94.83;100570.16;4960703;28;20030;-71
2022/04/09 00:59:16;;;;;;;21.83;2.90;;;;;;;4.74;93.97;100588.56;4959438;28;21044;-72
2022/04/09 01:01:42;;;;;;;12.63;2.70;;;;;;;4.71;93.28;100578.16;4961199;28;20035;-72
2022/04/09 01:04:09;;;;;;;17.15;2.50;;;;;;;4.68;93.47;100593.97;4958319;28;20034;-72
2022/04/09 01:06:35;;;;;;;15.25;2.45;;;;;;;4.71;92.12;100592.13;4942136;28;20074;-73
2022/04/09 01:09:01;;;;;;;12.05;2.00;;;;;;;4.70;91.16;100590.41;4959149;28;20035;-73
2022/04/09 01:11:27;;;;;;;16.00;2.42;;;;;;;4.70;91.31;100592.16;4942427;28;20066;-73
2022/04/09 01:13:53;;;;;;;11.90;2.40;;;;;;;4.72;90.38;100614.84;4941341;28;20754;-72
2022/04/09 01:16:18;;;;;;;11.77;2.20;;;;;;;4.79;89.77;100598.97;4939975;28;20136;-73
2022/04/09 01:18:44;;;;;;;15.77;2.40;;;;;;;4.83;90.08;100614.56;4958894;28;20039;-72
2022/04/09 01:21:09;;;;;;;14.10;2.33;;;;;;;4.93;89.96;100630.97;4942286;28;20137;-72
2022/04/09 01:23:35;;;;;;;15.55;2.55;;;;;;;5.01;89.98;100634.28;4957417;28;20030;-72
2022/04/09 01:26:02;;;;;;;6.28;1.80;;;;;;;4.85;87.73;100646.03;4958756;28;20099;-72
2022/04/09 01:28:28;;;;;;;14.55;1.92;;;;;;;4.66;89.19;100643.84;4957103;28;20446;-72
2022/04/09 01:30:54;;;;;;;12.25;2.40;;;;;;;4.58;91.34;100649.25;4959112;28;20038;-73
2022/04/09 01:33:20;;;;;;;12.07;2.72;;;;;;;4.55;92.31;100648.47;4958898;28;20077;-72
2022/04/09 01:35:47;;;;;;;11.13;2.00;;;;;;;4.61;92.40;100656.19;4940176;28;20027;-72
2022/04/09 01:38:12;;;;;;;10.40;2.00;;;;;;;4.64;91.26;100656.13;4957966;28;20030;-72
2022/04/09 01:40:38;;;;;;;11.20;2.17;;;;;;;4.76;88.23;100666.34;4946224;28;20065;-72
2022/04/09 01:43:04;;;;;;;10.05;2.05;;;;;;;4.87;85.39;100673.97;4971476;28;20113;-72
2022/04/09 01:45:30;;;;;;;11.60;1.92;;;;;;;4.93;85.56;100670.31;4940774;28;20073;-72
2022/04/09 01:47:55;;;;;;;11.32;2.15;;;;;;;4.96;85.57;100662.34;4947151;28;20157;-72
2022/04/09 01:50:26;;;;;;;8.35;1.95;;;;;;;4.94;85.75;100666.81;4958454;28;20066;-73
2022/04/09 01:52:52;;;;;;;12.60;2.10;;;;;;;4.83;86.42;100660.94;4957792;28;20069;-73
2022/04/09 01:55:17;;;;;;;10.43;2.00;;;;;;;4.76;86.74;100668.94;4927664;28;20078;-73
2022/04/09 01:57:43;;;;;;;7.47;1.85;;;;;;;4.70;87.01;100666.47;4940879;28;20101;-72
2022/04/09 02:00:10;;;;;;;8.43;1.73;;;;;;;4.62;87.27;100672.78;4940010;28;20031;-73
2022/04/09 02:02:36;;;;;;;11.82;1.90;;;;;;;4.52;88.28;100672.16;4958772;28;20023;-73
2022/04/09 02:05:02;;;;;;;5.43;1.48;;;;;;;4.47;88.27;100671.38;4958039;28;20101;-72
2022/04/09 02:07:28;;;;;;;8.25;2.22;;;;;;;4.42;89.12;100666.25;4958636;28;20046;-71
2022/04/09 02:09:54;;;;;;;8.05;1.90;;;;;;;4.38;89.23;100689.03;4956366;28;20035;-73
2022/04/09 02:12:19;;;;;;;12.25;2.13;;;;;;;4.37;91.18;100697.81;4958724;28;20030;-72
2022/04/09 02:14:45;;;;;;;10.43;2.00;;;;;;;4.32;91.50;100685.69;4956567;28;20439;-72
2022/04/09 02:17:11;;;;;;;15.40;2.20;;;;;;;4.32;92.99;100694.41;4958070;28;20561;-75
2022/04/09 02:19:36;;;;;;;12.60;2.55;;;;;;;4.32;93.31;100688.31;4940224;28;20031;-74
2022/04/09 02:22:02;;;;;;;10.75;2.35;;;;;;;4.30;93.69;100696.22;4958090;28;20082;-73
2022/04/09 02:24:27;;;;;;;13.07;2.42;;;;;;;4.33;94.30;100705.78;4941448;28;20035;-73
2022/04/09 02:26:53;;;;;;;13.57;2.10;;;;;;;4.34;94.97;100705.72;4909281;28;20589;-73
2022/04/09 02:29:20;;;;;;;12.55;2.97;;;;;;;4.37;95.47;100712.66;4958332;28;20147;-74
2022/04/09 02:31:45;;;;;;;13.52;2.60;;;;;;;4.35;95.66;100712.72;4957096;28;20066;-73
2022/04/09 02:34:10;;;;;;;9.82;2.30;;;;;;;4.39;96.84;100710.88;4958471;28;20046;-74
2022/04/09 02:36:36;;;;;;;17.25;2.70;;;;;;;4.39;97.27;100716.97;4961202;28;20035;-74
2022/04/09 02:39:02;;;;;;;15.32;2.72;;;;;;;4.40;97.40;100710.00;4957544;28;20125;-74
2022/04/09 02:41:29;;;;;;;12.57;2.58;;;;;;;4.46;97.02;100717.72;4961848;28;20040;-71
2022/04/09 02:43:54;;;;;;;19.67;2.78;;;;;;;4.46;97.35;100733.44;4943580;28;20469;-72
2022/04/09 02:46:21;;;;;;;11.80;2.63;;;;;;;4.46;96.51;100725.56;4957572;28;20027;-74
2022/04/09 02:48:46;;;;;;;14.00;2.50;;;;;;;4.48;96.08;100723.78;4957478;28;20062;-73
2022/04/09 02:51:12;;;;;;;13.77;2.20;;;;;;;4.47;94.49;100723.84;4957634;28;20142;-73
2022/04/09 02:53:38;;;;;;;11.27;2.25;;;;;;;4.52;93.41;100732.47;4959600;28;20031;-73
2022/04/09 02:56:04;;;;;;;11.85;2.25;;;;;;;4.55;92.43;100735.00;4961609;28;20398;-74
2022/04/09 02:58:30;;;;;;;8.20;2.08;;;;;;;4.57;91.42;100739.31;4957316;28;20059;-72
2022/04/09 03:00:55;;;;;;;9.10;1.85;;;;;;;4.56;90.44;100734.97;4961485;28;20042;-73
2022/04/09 03:03:20;;;;;;;13.15;1.98;;;;;;;4.57;89.95;100739.31;4963878;28;20317;-72
2022/04/09 03:05:46;;;;;;;11.57;2.45;;;;;;;4.59;89.51;100734.03;4961320;28;20437;-73
2022/04/09 03:08:11;;;;;;;9.10;2.08;;;;;;;4.63;89.16;100737.47;4965479;28;20077;-72
2022/04/09 03:10:36;;;;;;;10.48;2.25;;;;;;;4.59;89.99;100744.53;4967950;28;20031;-73
2022/04/09 03:13:04;;;;;;;11.00;1.88;;;;;;;4.57;90.37;100747.19;4960224;28;20558;-72
2022/04/09 03:15:30;;;;;;;14.82;3.20;;;;;;;4.65;90.75;100746.16;4967709;28;20065;-71
2022/04/09 03:17:55;;;;;;;10.32;2.20;;;;;;;4.67;90.37;100753.13;4967744;28;20035;-73
2022/04/09 03:20:21;;;;;;;18.38;2.45;;;;;;;4.69;89.71;100759.19;4967633;28;20690;-72
2022/04/09 03:22:47;;;;;;;10.23;2.20;;;;;;;4.67;89.68;100762.75;4967565;28;20041;-72
2022/04/09 03:25:13;;;;;;;10.55;2.03;;;;;;;4.67;89.30;100768.00;4973505;28;20030;-72
2022/04/09 03:27:38;;;;;;;10.95;2.30;;;;;;;4.66;88.62;100764.50;4957373;28;20043;-72
2022/04/09 03:30:05;;;;;;;9.93;2.20;;;;;;;4.72;86.89;100772.25;4941783;28;20041;-73
2022/04/09 03:32:31;;;;;;;11.38;2.72;;;;;;;4.77;85.88;100769.53;4967251;28;20395;-74
2022/04/09 03:34:57;;;;;;;15.75;2.58;;;;;;;4.76;85.97;100773.03;4966995;28;20067;-73
2022/04/09 03:37:22;;;;;;;13.88;2.08;;;;;;;4.84;84.64;100770.25;4958235;28;20034;-73
2022/04/09 03:39:49;;;;;;;11.30;2.13;;;;;;;4.91;83.38;100787.56;4957513;28;20113;-72
2022/04/09 03:42:15;;;;;;;11.65;2.10;;;;;;;4.91;83.42;100793.69;4967602;28;20038;-74
2022/04/09 03:44:40;;;;;;;10.13;1.90;;;;;;;4.94;83.13;100787.50;4967257;28;20086;-73
2022/04/09 03:47:06;;;;;;;12.23;2.45;;;;;;;4.98;83.26;100790.94;4957429;28;20042;-72
2022/04/09 03:49:32;;;;;;;11.35;2.08;;;;;;;4.95;83.83;100794.50;4967218;28;20035;-72
2022/04/09 03:51:58;;;;;;;10.90;2.35;;;;;;;4.91;84.79;100790.19;4967041;28;20502;-72
2022/04/09 03:54:23;;;;;;;12.27;1.98;;;;;;;4.90;85.20;100794.59;4956849;28;20039;-73
2022/04/09 03:56:49;;;;;;;8.43;2.30;;;;;;;4.98;86.04;100796.19;4958316;28;20054;-72
2022/04/09 03:59:16;;;;;;;14.75;2.25;;;;;;;4.99;86.37;100795.28;4941209;28;21676;-73
2022/04/09 04:01:44;;;;;;;13.27;2.22;;;;;;;4.99;87.39;100792.66;4966834;28;20038;-74
2022/04/09 04:04:10;;;;;;;13.45;3.22;;;;;;;4.96;89.57;100808.47;4956504;28;20100;-72
2022/04/09 04:06:36;;;;;;;17.33;2.42;;;;;;;4.97;90.09;100803.19;4967198;28;20403;-72
2022/04/09 04:09:01;;;;;;;20.00;2.30;;;;;;;4.95;90.39;100806.72;4966996;28;20042;-72
2022/04/09 04:11:27;;;;;;;11.27;2.25;;;;;;;4.93;90.48;100814.66;4968283;28;20422;-72
2022/04/09 04:13:53;;;;;;;9.75;2.05;;;;;;;4.96;90.70;100814.56;4965836;28;20050;-72
2022/04/09 04:16:18;;;;;;;9.55;2.30;;;;;;;5.00;90.56;100815.38;4966314;28;20030;-71
2022/04/09 04:18:44;;;;;;;14.25;2.28;;;;;;;5.01;89.76;100820.59;4959251;28;20039;-73
2022/04/09 04:21:09;;;;;;;9.40;2.13;;;;;;;5.01;89.84;100836.34;4940527;28;20026;-74
2022/04/09 04:23:35;;;;;;;14.32;2.58;;;;;;;5.04;88.47;100838.03;4966639;28;20031;-72
2022/04/09 04:26:01;;;;;;;12.68;2.13;;;;;;;4.97;88.97;100837.28;4971809;28;20506;-72
2022/04/09 04:28:27;;;;;;;14.65;2.80;;;;;;;4.88;89.12;100846.22;4974704;28;20501;-73
2022/04/09 04:30:52;;;;;;;8.52;2.13;;;;;;;4.88;88.88;100837.50;4959357;28;20030;-73
2022/04/09 04:33:17;;;;;;;11.50;2.47;;;;;;;4.86;88.71;100848.03;4973070;28;20026;-73
2022/04/09 04:35:43;;;;;;;19.52;2.55;;;;;;;4.87;88.30;100848.88;4956311;28;20038;-73
2022/04/09 04:38:08;;;;;;;10.52;2.00;;;;;;;4.84;88.47;100844.56;4971903;28;20039;-72
2022/04/09 04:40:34;;;;;;;11.25;2.47;;;;;;;4.86;87.50;100841.91;4966372;28;20049;-73
2022/04/09 04:42:59;;;;;;;14.57;2.05;;;;;;;4.90;86.75;100851.47;4966055;28;20539;-72
2022/04/09 04:45:24;;;;;;;11.38;2.30;;;;;;;4.85;86.71;100858.56;4956461;28;20070;-72
2022/04/09 04:47:50;;;;;;;16.02;2.40;;;;;;;4.79;87.77;100851.66;4973258;28;20031;-72
2022/04/09 04:50:17;;;;;;;12.65;2.05;;;;;;;4.74;88.99;100857.03;4972318;28;20491;-72
2022/04/09 04:52:43;;;;;;;10.07;1.90;;;;;;;4.78;88.67;100859.56;4965663;28;20034;-72
2022/04/09 04:55:10;;;;;;;12.45;2.88;;;;;;;4.86;88.40;100866.41;4965492;28;20130;-72
2022/04/09 04:57:46;;;;;;;10.93;2.08;;;;;;;4.95;87.71;100867.97;4965798;28;20533;-71
2022/04/09 05:00:17;;;;;;;10.88;2.08;;;;;;;5.02;88.27;100868.69;4955821;28;20042;-74
2022/04/09 05:02:43;;;;;;;15.13;2.85;;;;;;;5.18;88.35;100861.34;4965836;28;20377;-71
2022/04/09 05:05:09;;;;;;;16.33;2.88;;;;;;;5.29;87.92;100867.22;4956058;28;20106;-73
2022/04/09 05:07:45;;;;;;;10.63;2.30;;;;;;;5.35;87.10;100890.72;4965510;28;20049;-74
2022/04/09 05:10:14;;;;;;;12.65;2.55;;;;;;;5.43;87.91;100893.16;4965580;28;20061;-73
2022/04/09 05:12:41;;;;;;;27.08;3.30;;;;;;;5.48;86.67;100893.06;4966109;28;20030;-72
2022/04/09 05:15:08;;;;;;;11.13;2.20;;;;;;;5.49;85.19;100897.44;4965830;28;20506;-74
2022/04/09 05:17:35;;;;;;;7.50;1.90;;;;;;;5.45;84.37;100914.13;4965575;28;20053;-74
2022/04/09 05:20:02;;;;;;;7.65;1.52;;;;;;;5.42;85.15;100909.81;4971883;28;20031;-72
2022/04/09 05:22:28;;;;;;;10.27;1.65;;;;;;;5.39;86.17;100909.91;4964045;28;20043;-72
2022/04/09 05:24:57;;;;;;;6.60;2.33;;;;;;;5.37;86.06;100916.94;4957708;28;20557;-74
2022/04/09 05:27:22;;;;;;;10.90;1.65;;;;;;;5.38;86.48;100932.69;4939403;28;20038;-74
2022/04/09 05:29:48;;;;;;;4.55;1.25;;;;;;;5.41;87.07;100937.00;4965357;28;20023;-72
2022/04/09 05:32:13;;;;;;;7.75;1.90;;;;;;;5.43;88.40;100950.94;4950214;28;20043;-72
2022/04/09 05:34:39;;;;;;;11.82;1.80;;;;;;;5.18;89.25;100951.47;4962604;28;20043;-73
2022/04/09 05:37:04;;;;;;;9.63;2.03;;;;;;;4.95;91.56;100951.94;4949150;28;20038;-73
2022/04/09 05:39:29;;;;;;;4.30;1.52;;;;;;;4.61;87.97;100944.72;4962770;28;20037;-74
2022/04/09 05:41:55;;;;;;;3.47;1.67;;;;;;;4.50;87.93;100941.41;4958336;28;20042;-75
2022/04/09 05:44:20;;;;;;;7.53;1.67;;;;;;;4.50;88.78;100944.03;4962251;28;21622;-75
2022/04/09 05:46:45;;;;;;;13.93;2.95;;;;;;;4.51;90.66;100954.50;4962620;28;20050;-75
2022/04/09 05:49:11;;;;;;;10.77;2.20;;;;;;;4.54;92.40;100948.31;4962290;28;20133;-75
2022/04/09 05:51:36;;;;;;;10.45;1.75;;;;;;;4.53;92.82;100952.72;4961017;28;20169;-74
2022/04/09 05:54:03;;;;;;;9.23;2.20;;;;;;;4.53;94.60;100967.59;4962216;28;20031;-73
2022/04/09 05:56:28;;;;;;;9.88;2.28;;;;;;;4.47;95.03;100965.94;4962341;28;20042;-73
2022/04/09 05:58:54;;;;;;;9.10;2.30;;;;;;;4.46;95.22;100966.81;4961778;28;20108;-72
2022/04/09 06:01:19;;;;;;;11.43;2.20;;;;;;;4.46;95.47;100966.81;4962254;28;20066;-72
2022/04/09 06:03:44;;;;;;;9.75;2.30;;;;;;;4.46;96.02;100965.97;4962120;28;20049;-74
2022/04/09 06:06:11;;;;;;;8.27;1.90;;;;;;;4.44;95.65;100973.88;4942213;28;20038;-73
2022/04/09 06:08:36;;;;;;;17.30;3.00;;;;;;;4.47;96.57;100975.56;4962197;28;20101;-73
2022/04/09 06:11:02;;;;;;;15.32;2.70;;;;;;;4.53;97.32;100980.72;4962074;28;20125;-73
2022/04/09 06:13:28;;;;;;;13.15;2.60;;;;;;;4.67;97.19;100994.44;4962394;28;20973;-73
2022/04/09 06:15:53;;;;;;;16.65;2.95;;;;;;;4.83;97.06;100979.25;4944028;28;20101;-74
2022/04/09 06:18:19;;;;;;;11.65;2.88;;;;;;;4.95;97.89;100988.69;4960188;28;20034;-72
2022/04/09 06:20:44;;;;;;;14.77;3.38;;;;;;;5.05;97.62;100987.63;4941851;28;20035;-72
2022/04/09 06:23:10;;;;;;;10.32;2.50;;;;;;;5.17;97.19;100998.78;4961919;28;20038;-72
2022/04/09 06:25:35;;;;;;;12.38;3.05;;;;;;;5.24;97.02;101010.88;4958178;28;20039;-73
2022/04/09 06:28:01;;;;;;;12.80;2.97;;;;;;;5.33;95.77;101000.19;4962892;28;20045;-73
2022/04/09 06:30:27;;;;;;;17.65;2.83;;;;;;;5.40;94.87;100999.16;4944933;28;20034;-73
2022/04/09 06:32:53;;;;;;;11.15;3.03;;;;;;;5.40;95.58;100996.53;4958748;28;20042;-73
2022/04/09 06:35:19;;;;;;;14.60;3.42;;;;;;;5.43;95.97;101008.72;4940220;28;20034;-73
2022/04/09 06:37:44;;;;;;;15.50;3.10;;;;;;;5.42;95.77;101020.13;4959664;28;20118;-72
2022/04/09 06:40:10;;;;;;;11.65;3.10;;;;;;;5.39;96.16;101017.56;4943817;28;20034;-72
2022/04/09 06:42:36;;;;;;;11.23;3.17;;;;;;;5.38;96.44;101034.22;4960381;28;20031;-72
2022/04/09 06:45:02;;;;;;;10.23;3.53;;;;;;;5.35;95.48;101035.16;4961094;28;20125;-73
2022/04/09 06:47:28;;;;;;;9.60;3.13;;;;;;;5.38;95.18;101039.47;4963792;28;20128;-73
2022/04/09 06:49:54;;;;;;;12.20;3.08;;;;;;;5.39;95.76;101026.31;4959468;28;20486;-72
2022/04/09 06:52:19;;;;;;;12.52;3.20;;;;;;;5.44;95.38;101041.97;4965126;28;20554;-72
2022/04/09 06:54:44;;;;;;;13.07;3.20;;;;;;;5.48;95.24;101048.03;4975729;28;20041;-73
2022/04/09 06:57:10;;;;;;;12.85;3.25;;;;;;;5.51;94.65;101051.47;4960745;28;20503;-74
2022/04/09 06:59:35;;;;;;;13.98;3.15;;;;;;;5.58;95.29;101058.31;4995575;28;20414;-73
2022/04/09 07:02:01;;;;;;;9.48;2.22;;;;;;;5.53;93.79;101091.69;4978147;28;20027;-73
2022/04/09 07:04:26;;;;;;;8.57;2.58;;;;;;;5.40;91.58;101077.94;4994552;28;20500;-73
2022/04/09 07:06:52;;;;;;;14.82;4.35;;;;;;;5.30;92.03;101076.38;4993835;28;20030;-74
2022/04/09 07:09:17;;;;;;;8.20;2.40;;;;;;;5.29;94.16;101081.69;4993815;28;20513;-73
2022/04/09 07:11:42;;;;;;;9.88;2.33;;;;;;;5.33;95.47;101086.84;4994379;28;20030;-74
2022/04/09 07:14:08;;;;;;;18.40;7.25;;;;;;;5.34;95.79;101085.09;4969701;28;20110;-73
2022/04/09 07:16:33;;;;;;;9.93;2.30;;;;;;;5.38;95.67;101085.00;4950958;28;20052;-74
2022/04/09 07:18:59;;;;;;;14.15;2.47;;;;;;;5.41;95.83;101090.19;4966747;28;20122;-74
2022/04/09 07:21:24;;;;;;;13.52;2.60;;;;;;;5.50;95.43;101086.53;4975981;28;20027;-73
2022/04/09 07:23:49;;;;;;;14.30;2.88;;;;;;;5.56;94.94;101086.41;4974679;28;20033;-75
2022/04/09 07:26:18;;;;;;;8.32;2.75;;;;;;;5.83;94.43;101086.72;4975048;28;20031;-75
2022/04/09 07:28:43;;;;;;;8.52;2.28;;;;;;;6.20;93.52;101090.34;4993147;28;20030;-75
2022/04/09 07:31:09;;;;;;;8.90;2.10;;;;;;;6.44;92.60;101099.41;4981092;28;20043;-73
2022/04/09 07:33:34;;;;;;;15.35;3.65;;;;;;;6.62;91.07;101102.53;4965907;28;20094;-75
2022/04/09 07:35:59;;;;;;;8.93;2.00;;;;;;;6.79;86.99;101112.63;4961262;28;20510;-75
2022/04/09 07:38:25;;;;;;;9.40;1.95;;;;;;;6.91;86.15;101108.84;4973585;28;20457;-74
2022/04/09 07:40:50;;;;;;;9.93;2.03;;;;;;;6.96;84.87;101092.03;4967184;28;20465;-72
2022/04/09 07:43:16;;;;;;;8.95;1.63;;;;;;;6.92;85.99;101108.81;4975215;28;20030;-72
2022/04/09 07:45:41;;;;;;;11.38;1.70;;;;;;;6.94;87.08;101117.50;4973971;28;20023;-74
2022/04/09 07:48:07;;;;;;;7.93;1.77;;;;;;;6.85;87.07;101112.47;4974649;28;20096;-74
2022/04/09 07:50:33;;;;;;;8.60;1.75;;;;;;;6.82;87.03;101117.84;4962876;28;20090;-74
2022/04/09 07:52:59;;;;;;;3.97;1.20;;;;;;;6.60;82.56;101112.22;4972291;28;20426;-72
2022/04/09 07:55:24;;;;;;;4.38;1.20;;;;;;;6.44;81.47;101123.09;4956978;28;20145;-72
2022/04/09 07:57:50;;;;;;;5.50;2.17;;;;;;;6.62;81.99;101128.84;4963934;28;20538;-74
2022/04/09 08:00:18;;;;;;;5.30;1.40;;;;;;;6.96;80.82;101131.50;4964114;28;20042;-72
2022/04/09 08:02:44;;;;;;;4.70;1.27;;;;;;;7.15;80.99;101136.31;4979466;28;20041;-74
2022/04/09 08:05:10;;;;;;;4.68;1.65;;;;;;;7.33;80.71;101141.09;4992838;28;20034;-73
2022/04/09 08:07:37;;;;;;;5.55;2.10;;;;;;;7.27;78.94;101145.66;4986049;28;20054;-73
2022/04/09 08:10:03;;;;;;;7.03;1.77;;;;;;;7.15;80.11;101174.06;4963027;28;20166;-73
2022/04/09 08:12:29;;;;;;;9.55;2.55;;;;;;;6.73;80.90;101182.94;4974731;28;20483;-73
2022/04/09 08:14:54;;;;;;;8.65;1.73;;;;;;;6.21;83.38;101184.09;4974668;28;20038;-72
2022/04/09 08:17:20;;;;;;;9.98;2.38;;;;;;;5.80;84.95;101183.16;4974747;28;20134;-72
2022/04/09 08:19:47;;;;;;;6.95;2.13;;;;;;;5.49;87.90;101208.25;4973550;28;20222;-73
2022/04/09 08:22:13;;;;;;;5.75;1.50;;;;;;;5.27;89.17;101181.50;4988106;28;20037;-73
2022/04/09 08:24:40;;;;;;;11.65;2.40;;;;;;;5.07;90.64;101190.56;4976867;28;20030;-73
2022/04/09 08:27:09;;;;;;;7.45;1.60;;;;;;;4.98;90.05;101195.09;4994120;28;20027;-73
2022/04/09 08:29:35;;;;;;;5.05;1.67;;;;;;;4.91;89.37;101192.56;4994091;28;20507;-73
2022/04/09 08:32:01;;;;;;;5.75;1.70;;;;;;;5.01;90.51;101193.31;4966784;28;20034;-73
2022/04/09 08:34:29;;;;;;;4.78;1.55;;;;;;;5.14;90.76;101191.34;4973896;28;20030;-73
2022/04/09 08:36:55;;;;;;;9.95;2.05;;;;;;;5.33;91.50;101185.75;4967618;28;20084;-74
2022/04/09 08:39:21;;;;;;;10.18;2.80;;;;;;;5.47;91.82;101189.00;4956885;28;20054;-73
2022/04/09 08:41:47;;;;;;;11.27;2.60;;;;;;;5.78;92.18;101190.19;4972667;28;20401;-74
2022/04/09 08:44:12;;;;;;;11.40;2.75;;;;;;;6.16;90.93;101193.84;4973684;28;20041;-73
2022/04/09 08:46:41;;;;;;;11.77;2.80;;;;;;;6.60;90.05;101178.88;4973328;28;20035;-72
2022/04/09 08:49:08;;;;;;;13.57;2.60;;;;;;;7.01;89.10;101184.94;4974285;28;20027;-73
2022/04/09 08:51:34;;;;;;;8.90;2.63;;;;;;;7.27;88.85;101169.38;4952611;28;20085;-72
2022/04/09 08:54:00;;;;;;;15.32;2.83;;;;;;;7.71;86.54;101185.75;4974177;28;20438;-73
2022/04/09 08:56:26;;;;;;;10.90;2.70;;;;;;;8.02;83.13;101198.13;4973890;28;20407;-73
2022/04/09 08:58:52;;;;;;;10.13;2.55;;;;;;;8.02;81.91;101206.88;4973708;28;20102;-73
2022/04/09 09:01:21;;;;;;;11.57;2.95;;;;;;;8.13;80.84;101203.06;4973496;28;20122;-73
2022/04/09 09:03:47;;;;;;;10.73;2.95;;;;;;;8.35;81.67;101208.56;4973863;28;20035;-73
2022/04/09 09:06:35;;;;;;;11.73;2.97;;;;;;;8.77;79.91;101202.97;4944350;28;20035;-74
2022/04/09 09:09:03;;;;;;;15.18;2.90;;;;;;;9.01;77.95;101205.72;4959961;28;20034;-72
2022/04/09 09:11:29;;;;;;;10.57;2.75;;;;;;;9.01;77.03;101209.22;4973499;28;20718;-72
2022/04/09 09:13:57;;;;;;;10.98;2.83;;;;;;;8.53;75.76;101212.50;4985394;28;20027;-72
2022/04/09 09:16:27;;;;;;;12.43;2.88;;;;;;;8.12;79.60;101220.69;4940368;28;20039;-72
2022/04/09 09:18:57;;;;;;;15.13;3.10;;;;;;;8.11;79.26;101216.31;4967145;28;20037;-72
2022/04/09 09:21:26;;;;;;;9.95;2.58;;;;;;;8.16;80.24;101222.31;4973498;28;20146;-72
2022/04/09 09:23:52;;;;;;;7.63;2.35;;;;;;;8.27;78.21;101231.69;4972186;28;20121;-72
2022/04/09 09:26:23;;;;;;;12.27;2.65;;;;;;;8.22;76.59;101228.31;4956398;28;20027;-72
2022/04/09 09:28:56;;;;;;;9.95;2.67;;;;;;;8.33;78.57;101218.31;4973153;28;20015;-72
2022/04/09 09:31:44;;;;;;;8.30;2.95;;;;;;;8.29;80.09;101243.09;4973228;28;20046;-72
2022/04/09 09:34:11;;;;;;;13.02;2.88;;;;;;;8.30;78.94;101232.47;4970501;28;20489;-72
2022/04/09 09:36:40;;;;;;;10.85;2.63;;;;;;;8.95;77.68;101240.25;4973345;28;20501;-72
2022/04/09 09:39:07;;;;;;;13.68;2.70;;;;;;;9.91;72.66;101239.69;4973456;28;20033;-73
2022/04/09 09:41:33;;;;;;;8.63;2.58;;;;;;;10.45;72.82;101249.22;4972892;28;20031;-73
2022/04/09 09:44:03;;;;;;;8.00;2.58;;;;;;;10.19;70.43;101251.94;4972669;28;20046;-72
2022/04/09 09:46:28;;;;;;;10.52;2.30;;;;;;;10.05;72.14;101237.44;4972924;28;20015;-73
2022/04/09 09:48:53;;;;;;;13.73;2.60;;;;;;;10.28;72.34;101252.47;4954346;28;20041;-73
2022/04/09 09:51:23;;;;;;;7.43;2.50;;;;;;;10.39;68.99;101260.03;4971342;28;20031;-73
2022/04/09 09:53:49;;;;;;;10.10;2.75;;;;;;;10.10;68.19;101261.94;4955365;28;20027;-73
2022/04/09 09:56:32;;;;;;;9.75;2.38;;;;;;;10.76;66.96;101260.41;4972865;28;20045;-73
2022/04/09 09:58:59;;;;;;;7.20;2.47;;;;;;;10.56;64.64;101259.41;4971678;28;20440;-73
2022/04/09 10:01:25;;;;;;;23.00;3.67;;;;;;;11.36;67.88;101267.75;4944430;28;20339;-72
2022/04/09 10:03:51;;;;;;;7.90;2.53;;;;;;;11.74;63.03;101267.91;4962358;28;20038;-72
2022/04/09 10:06:17;;;;;;;9.77;2.55;;;;;;;10.84;63.04;101263.63;4989099;28;20458;-72
2022/04/09 10:08:42;;;;;;;6.50;2.03;;;;;;;10.81;62.92;101258.44;4976518;28;20031;-70
2022/04/09 10:11:09;;;;;;;6.97;2.30;;;;;;;10.49;63.55;101269.34;4971552;28;20398;-72
2022/04/09 10:13:36;;;;;;;13.88;2.70;;;;;;;11.55;62.65;101266.06;4971242;28;20054;-70
2022/04/09 10:16:01;;;;;;;8.95;2.35;;;;;;;11.09;62.34;101273.25;4970182;28;20575;-72
2022/04/09 10:18:27;;;;;;;8.00;1.98;;;;;;;11.61;60.74;101276.41;4976879;28;20186;-73
2022/04/09 10:20:56;;;;;;;9.30;2.03;;;;;;;12.24;58.54;101275.50;4969902;28;20057;-72
2022/04/09 10:23:23;;;;;;;7.15;2.25;;;;;;;12.60;57.13;101282.72;4953052;28;20031;-72
2022/04/09 10:25:51;;;;;;;8.82;2.25;;;;;;;13.22;55.14;101286.91;4955176;28;20359;-72
2022/04/09 10:28:29;;;;;;;12.27;2.17;;;;;;;12.47;54.89;101289.53;4972575;28;20031;-73
2022/04/09 10:30:55;;;;;;;11.13;2.67;;;;;;;12.15;55.79;101296.28;4956945;28;20123;-73
2022/04/09 10:33:22;;;;;;;14.98;2.42;;;;;;;11.59;56.26;101296.84;4967539;28;20137;-72
2022/04/09 10:35:48;;;;;;;7.75;2.30;;;;;;;10.82;59.19;101316.66;4972823;28;20059;-72
2022/04/09 10:38:33;;;;;;;8.80;2.35;;;;;;;10.69;61.64;101322.50;4955382;28;20113;-73
2022/04/09 10:41:01;;;;;;;10.30;2.42;;;;;;;10.43;60.86;101311.09;4973693;28;20072;-73
2022/04/09 10:43:27;;;;;;;13.25;2.85;;;;;;;10.31;60.37;101312.38;4985310;28;20027;-73
2022/04/09 10:46:02;;;;;;;6.15;2.08;;;;;;;10.23;61.73;101315.28;4987531;28;20041;-73
2022/04/09 10:48:32;;;;;;;11.30;2.75;;;;;;;10.07;63.85;101336.13;4973924;28;20126;-74
2022/04/09 10:51:11;;;;;;;13.57;1.90;;;;;;;9.50;66.35;101345.94;4973109;28;20034;-73
2022/04/09 10:53:44;;;;;;;9.40;1.60;;;;;;;8.50;67.46;101326.06;4976370;28;20118;-74
2022/04/09 10:56:31;;;;;;;8.65;2.10;;;;;;;8.27;69.27;101348.63;4986477;28;20027;-73
2022/04/09 10:59:13;;;;;;;7.38;1.50;;;;;;;8.08;70.55;101347.41;4982576;28;20066;-76
2022/04/09 11:01:46;;;;;;;8.90;2.10;;;;;;;7.86;71.11;101342.69;4974313;28;20038;-74
2022/04/09 11:04:30;;;;;;;9.45;1.83;;;;;;;7.92;71.48;101341.69;4980232;28;20030;-72
2022/04/09 11:07:15;;;;;;;10.48;1.70;;;;;;;7.97;70.57;101345.91;4973600;28;20123;-72
2022/04/09 11:09:44;;;;;;;7.72;2.00;;;;;;;7.86;72.19;101343.56;4973088;28;20027;-74
2022/04/09 11:12:11;;;;;;;14.02;2.47;;;;;;;7.90;72.33;101351.41;4976559;28;20393;-72
2022/04/09 11:14:57;;;;;;;11.70;2.58;;;;;;;7.89;71.70;101350.53;4973448;28;20018;-73
2022/04/09 11:17:24;;;;;;;7.85;2.45;;;;;;;8.20;69.57;101350.59;4954075;28;20093;-68
2022/04/09 11:19:51;;;;;;;7.13;2.30;;;;;;;9.20;65.23;101347.81;4969081;28;20069;-73
2022/04/09 11:22:16;;;;;;;4.85;1.80;;;;;;;10.66;59.72;101352.59;4969690;28;20023;-73
2022/04/09 11:24:42;;;;;;;8.07;2.03;;;;;;;12.32;53.83;101346.00;4980434;28;20395;-73